createdAt,value
2023-02-27T00:01:13.020Z,90.3
2023-02-27T00:04:13.058Z,90
2023-02-27T00:07:13.032Z,90
2023-02-27T00:10:13.040Z,90
2023-02-27T00:13:13.038Z,89.9
2023-02-27T00:16:13.194Z,89.9
2023-02-27T00:19:13.046Z,90
2023-02-27T00:22:13.053Z,90
2023-02-27T00:25:13.064Z,90.3
2023-02-27T00:28:13.066Z,90.8
2023-02-27T00:31:13.115Z,91.2
2023-02-27T00:34:13.099Z,91.2
2023-02-27T00:37:13.085Z,91.1
2023-02-27T00:40:13.076Z,90.9
2023-02-27T00:43:13.080Z,90.7
2023-02-27T00:46:13.076Z,90.8
2023-02-27T00:49:13.082Z,90.8
2023-02-27T00:52:13.108Z,90.8
2023-02-27T00:55:13.085Z,90.9
2023-02-27T00:58:13.088Z,91
2023-02-27T01:01:13.145Z,91.1
2023-02-27T01:04:13.099Z,91.1
2023-02-27T01:07:13.109Z,91
2023-02-27T01:10:13.139Z,91.1
2023-02-27T01:13:13.119Z,91.2
2023-02-27T01:16:13.152Z,91.5
2023-02-27T01:19:13.147Z,91.8
2023-02-27T01:22:13.144Z,91.9
2023-02-27T01:25:13.152Z,92.1
2023-02-27T01:28:13.217Z,92.3
2023-02-27T01:31:13.158Z,92.5
2023-02-27T01:34:13.158Z,92.7
2023-02-27T01:37:13.205Z,92.8
2023-02-27T01:40:13.167Z,92.8
2023-02-27T01:43:13.172Z,92.9
2023-02-27T01:46:13.286Z,92.9
2023-02-27T01:49:13.179Z,92.9
2023-02-27T01:52:13.178Z,92.8
2023-02-27T01:55:13.227Z,92.8
2023-02-27T01:58:13.197Z,92.7
2023-02-27T02:01:13.265Z,92.7
2023-02-27T02:04:13.233Z,92.6
2023-02-27T02:07:13.276Z,92.6
2023-02-27T02:10:13.216Z,92.5
2023-02-27T02:13:13.221Z,92.2
2023-02-27T02:16:13.223Z,92
2023-02-27T02:19:13.235Z,91.9
2023-02-27T02:22:13.284Z,91.9
2023-02-27T02:25:13.250Z,92.1
2023-02-27T02:28:13.250Z,92.4
2023-02-27T02:31:13.307Z,92.6
2023-02-27T02:34:13.266Z,92.6
2023-02-27T02:37:13.385Z,92.4
2023-02-27T02:40:13.299Z,92.3
2023-02-27T02:43:13.261Z,92.3
2023-02-27T02:46:13.347Z,92.5
2023-02-27T02:49:13.271Z,92.7
2023-02-27T02:52:13.361Z,92.7
2023-02-27T02:55:13.286Z,92.8
2023-02-27T02:58:13.328Z,92.8
2023-02-27T03:01:13.296Z,93
2023-02-27T03:04:13.347Z,93.1
2023-02-27T03:07:13.649Z,93
2023-02-27T03:10:13.306Z,92.9
2023-02-27T03:13:13.339Z,93
2023-02-27T03:16:13.358Z,92.9
2023-02-27T03:19:13.322Z,92.8
2023-02-27T03:22:13.323Z,92.7
2023-02-27T03:25:13.323Z,92.7
2023-02-27T03:28:13.333Z,92.8
2023-02-27T03:31:13.404Z,92.8
2023-02-27T03:34:13.357Z,92.9
2023-02-27T03:37:13.338Z,92.9
2023-02-27T03:40:13.341Z,93.1
2023-02-27T03:43:13.352Z,93.3
2023-02-27T03:46:13.391Z,93.6
2023-02-27T03:49:13.362Z,93.8
2023-02-27T03:52:13.413Z,94
2023-02-27T03:55:13.366Z,94.1
2023-02-27T03:58:13.364Z,94.2
2023-02-27T04:01:13.373Z,94.2
2023-02-27T04:04:13.372Z,94.1
2023-02-27T04:07:13.374Z,94.1
2023-02-27T04:10:13.399Z,93.9
2023-02-27T04:13:13.382Z,93.5
2023-02-27T04:16:13.429Z,93
2023-02-27T04:19:13.388Z,92.8
2023-02-27T04:22:13.384Z,92.7
2023-02-27T04:25:13.393Z,92.8
2023-02-27T04:28:13.409Z,93.1
2023-02-27T04:31:13.460Z,93.4
2023-02-27T04:34:13.409Z,93.7
2023-02-27T04:37:13.419Z,93.9
2023-02-27T04:40:13.416Z,93.9
2023-02-27T04:43:13.418Z,93.8
2023-02-27T04:46:13.451Z,93.7
2023-02-27T04:49:13.432Z,93.6
2023-02-27T04:52:13.440Z,93.5
2023-02-27T04:55:13.436Z,93.3
2023-02-27T04:58:13.446Z,93.2
2023-02-27T05:01:13.453Z,93.2
2023-02-27T05:04:13.484Z,93.1
2023-02-27T05:07:13.459Z,93.2
2023-02-27T05:10:13.462Z,93.3
2023-02-27T05:13:13.475Z,93.3
2023-02-27T05:16:13.483Z,93.2
2023-02-27T05:19:13.478Z,93.2
2023-02-27T05:22:13.506Z,93.2
2023-02-27T05:25:13.522Z,93.3
2023-02-27T05:28:13.489Z,93.4
2023-02-27T05:31:13.549Z,93.3
2023-02-27T05:34:13.502Z,93.4
2023-02-27T05:37:13.500Z,93.6
2023-02-27T05:40:13.527Z,93.7
2023-02-27T05:43:13.508Z,93.8
2023-02-27T05:46:13.633Z,94
2023-02-27T05:49:13.515Z,94
2023-02-27T05:52:13.517Z,94.2
2023-02-27T05:55:13.523Z,94.2
2023-02-27T05:58:13.558Z,94.3
2023-02-27T06:01:13.539Z,94.4
2023-02-27T06:04:13.544Z,94.4
2023-02-27T06:07:13.538Z,94.5
2023-02-27T06:10:13.545Z,94.6
2023-02-27T06:13:13.551Z,94.7
2023-02-27T06:16:13.634Z,94.8
2023-02-27T06:19:13.556Z,94.8
2023-02-27T06:22:13.564Z,94.8
2023-02-27T06:25:13.564Z,94.9
2023-02-27T06:28:13.566Z,94.9
2023-02-27T06:31:13.616Z,95
2023-02-27T06:34:13.609Z,95.1
2023-02-27T06:37:13.577Z,95.1
2023-02-27T06:40:13.601Z,95.2
2023-02-27T06:43:13.586Z,95.3
2023-02-27T06:46:13.599Z,95.3
2023-02-27T06:49:13.603Z,95.2
2023-02-27T06:52:13.632Z,95.1
2023-02-27T06:55:13.600Z,95.2
2023-02-27T06:58:13.607Z,95.1
2023-02-27T07:01:13.698Z,95.1
2023-02-27T07:04:13.620Z,95
2023-02-27T07:07:33.625Z,95
2023-02-27T07:10:13.650Z,95
2023-02-27T07:13:16.071Z,94.9
2023-02-27T07:16:13.702Z,94.9
2023-02-27T07:19:13.632Z,94.9
2023-02-27T07:22:13.670Z,94.9
2023-02-27T07:25:13.677Z,94.7
2023-02-27T07:28:13.806Z,94.5
2023-02-27T07:31:13.727Z,94
2023-02-27T07:34:13.685Z,93.4
2023-02-27T07:37:13.680Z,92.8
2023-02-27T07:40:13.696Z,92.2
2023-02-27T07:43:13.685Z,91.7
2023-02-27T07:46:13.744Z,91.1
2023-02-27T07:49:13.698Z,89.7
2023-02-27T07:52:13.871Z,88.8
2023-02-27T07:55:13.698Z,88.4
2023-02-27T07:58:13.705Z,88.2
2023-02-27T08:01:13.704Z,88.1
2023-02-27T08:04:13.752Z,87.9
2023-02-27T08:07:13.712Z,87.8
2023-02-27T08:10:13.704Z,87.4
2023-02-27T08:13:13.716Z,86.9
2023-02-27T08:16:13.750Z,86.5
2023-02-27T08:19:13.731Z,86.2
2023-02-27T08:22:13.753Z,85.9
2023-02-27T08:25:13.872Z,85.9
2023-02-27T08:28:13.738Z,85.7
2023-02-27T08:31:13.784Z,85
2023-02-27T08:34:13.738Z,84.4
2023-02-27T08:37:13.737Z,83.8
2023-02-27T08:40:13.769Z,83.4
2023-02-27T08:43:13.745Z,81.6
2023-02-27T08:46:13.790Z,79.5
2023-02-27T08:49:13.761Z,77.8
2023-02-27T08:52:13.757Z,75.6
2023-02-27T08:55:13.759Z,74.4
2023-02-27T08:58:13.793Z,71.9
2023-02-27T09:01:13.805Z,70.8
2023-02-27T09:04:13.779Z,70.1
2023-02-27T09:07:13.789Z,68.8
2023-02-27T09:10:13.793Z,67.8
2023-02-27T09:13:13.801Z,67.1
2023-02-27T09:16:13.879Z,66.3
2023-02-27T09:19:13.804Z,65.7
2023-02-27T09:22:13.810Z,65.2
2023-02-27T09:25:13.816Z,64.1
2023-02-27T09:28:13.819Z,63.6
2023-02-27T09:31:13.878Z,63.1
2023-02-27T09:34:13.851Z,62.7
2023-02-27T09:37:13.847Z,62.3
2023-02-27T09:40:13.846Z,62.3
2023-02-27T09:43:13.950Z,61.4
2023-02-27T09:46:13.856Z,60.5
2023-02-27T09:49:13.846Z,60.8
2023-02-27T09:52:13.887Z,60.8
2023-02-27T09:55:13.869Z,60.4
2023-02-27T09:58:13.895Z,60.7
2023-02-27T10:01:13.912Z,60.2
2023-02-27T10:04:13.905Z,59.7
2023-02-27T10:07:13.903Z,60.5
2023-02-27T10:10:13.927Z,60.4
2023-02-27T10:13:13.922Z,61.4
2023-02-27T10:16:13.997Z,61.8
2023-02-27T10:19:13.916Z,61.6
2023-02-27T10:22:13.922Z,60.6
2023-02-27T10:25:28.642Z,59.6
2023-02-27T10:28:13.934Z,58.5
2023-02-27T10:31:13.948Z,58.8
2023-02-27T10:34:13.933Z,58.9
2023-02-27T10:37:13.918Z,58.2
2023-02-27T10:40:13.915Z,58.1
2023-02-27T10:43:13.913Z,57.2
2023-02-27T10:46:13.975Z,55.9
2023-02-27T10:49:13.915Z,56.9
2023-02-27T10:52:13.917Z,57.4
2023-02-27T10:55:13.936Z,57.5
2023-02-27T10:58:13.915Z,57.5
2023-02-27T11:01:13.943Z,56.7
2023-02-27T11:04:13.975Z,56.5
2023-02-27T11:07:13.921Z,56.8
2023-02-27T11:10:13.937Z,58.2
2023-02-27T11:13:13.934Z,57.9
2023-02-27T11:16:14.174Z,57
2023-02-27T11:19:14.514Z,56.4
2023-02-27T11:22:13.947Z,55.5
2023-02-27T11:25:13.924Z,55.6
2023-02-27T11:28:13.932Z,56.1
2023-02-27T11:31:13.974Z,56.7
2023-02-27T11:34:13.928Z,58.7
2023-02-27T11:37:13.940Z,60.3
2023-02-27T11:40:13.955Z,60.7
2023-02-27T11:43:13.932Z,60.4
2023-02-27T11:46:35.946Z,59.6
2023-02-27T11:49:13.938Z,58.7
2023-02-27T11:52:13.956Z,57.5
2023-02-27T11:55:13.936Z,57.2
2023-02-27T11:58:13.964Z,57.2
2023-02-27T12:01:14.132Z,55.7
2023-02-27T12:04:13.979Z,56
2023-02-27T12:07:13.947Z,56.5
2023-02-27T12:10:13.999Z,56.9
2023-02-27T12:13:13.943Z,56.7
2023-02-27T12:16:14.056Z,56.6
2023-02-27T12:19:13.943Z,56.1
2023-02-27T12:22:13.944Z,56.4
2023-02-27T12:25:13.948Z,56.8
2023-02-27T12:28:13.945Z,56.5
2023-02-27T12:31:13.997Z,57.4
2023-02-27T12:34:14.082Z,58
2023-02-27T12:37:13.962Z,59.1
2023-02-27T12:40:13.957Z,59.6
2023-02-27T12:43:13.968Z,59.2
2023-02-27T12:46:14.014Z,57.9
2023-02-27T12:49:13.957Z,58
2023-02-27T12:52:13.994Z,58.8
2023-02-27T12:55:13.968Z,58.7
2023-02-27T12:58:13.967Z,59.5
2023-02-27T13:01:14.036Z,60.1
2023-02-27T13:04:14.049Z,60.8
2023-02-27T13:07:14.018Z,60.9
2023-02-27T13:10:14.021Z,60.5
2023-02-27T13:13:13.995Z,60
2023-02-27T13:16:14.032Z,60.3
2023-02-27T13:19:14.004Z,60
2023-02-27T13:22:14.016Z,60.1
2023-02-27T13:25:14.013Z,59.8
2023-02-27T13:28:14.049Z,59.6
2023-02-27T13:31:14.016Z,59.8
2023-02-27T13:34:14.017Z,59
2023-02-27T13:37:14.056Z,58.7
2023-02-27T13:40:14.024Z,58.2
2023-02-27T13:43:14.027Z,58.2
2023-02-27T13:46:14.082Z,58.5
2023-02-27T13:49:23.515Z,58.5
2023-02-27T13:52:14.053Z,59.5
2023-02-27T13:55:14.053Z,59.2
2023-02-27T13:58:14.058Z,58.8
2023-02-27T14:01:14.071Z,58.5
2023-02-27T14:04:14.100Z,58.7
2023-02-27T14:07:14.082Z,59.3
2023-02-27T14:10:14.067Z,59.9
2023-02-27T14:13:14.077Z,60.3
2023-02-27T14:16:14.112Z,60.2
2023-02-27T14:19:14.071Z,59.7
2023-02-27T14:22:14.129Z,60
2023-02-27T14:25:14.084Z,60.2
2023-02-27T14:28:14.081Z,59.6
2023-02-27T14:31:14.119Z,59.7
2023-02-27T14:34:14.084Z,59.3
2023-02-27T14:37:14.093Z,59.5
2023-02-27T14:40:21.276Z,60.2
2023-02-27T14:43:14.080Z,60.7
2023-02-27T14:46:14.108Z,60.8
2023-02-27T14:49:14.081Z,61.2
2023-02-27T14:52:14.106Z,60.8
2023-02-27T14:55:14.098Z,60.5
2023-02-27T14:58:14.153Z,59.8
2023-02-27T15:01:14.093Z,59.7
2023-02-27T15:04:14.159Z,59.3
2023-02-27T15:07:14.101Z,59.2
2023-02-27T15:10:14.090Z,59.5
2023-02-27T15:13:14.100Z,59.4
2023-02-27T15:16:16.484Z,59.7
2023-02-27T15:19:14.114Z,60.3
2023-02-27T15:22:14.107Z,60.3
2023-02-27T15:25:14.100Z,60.3
2023-02-27T15:28:14.105Z,60.6
2023-02-27T15:31:14.114Z,60.9
2023-02-27T15:34:14.138Z,60.6
2023-02-27T15:37:14.115Z,60.6
2023-02-27T15:40:14.104Z,60.4
2023-02-27T15:43:14.106Z,60.8
2023-02-27T15:46:14.136Z,61.1
2023-02-27T15:49:14.113Z,61.4
2023-02-27T15:52:14.173Z,61.7
2023-02-27T15:55:14.113Z,61.9
2023-02-27T15:58:14.114Z,62
2023-02-27T16:01:14.168Z,62.4
2023-02-27T16:04:14.118Z,63
2023-02-27T16:07:14.130Z,62.9
2023-02-27T16:10:14.150Z,63.1
2023-02-27T16:13:14.114Z,63
2023-02-27T16:16:14.197Z,63.1
2023-02-27T16:19:14.123Z,63.5
2023-02-27T16:22:14.127Z,63.9
2023-02-27T16:25:14.127Z,64
2023-02-27T16:28:14.152Z,64.4
2023-02-27T16:31:14.166Z,64.4
2023-02-27T16:34:14.129Z,64.9
2023-02-27T16:37:14.142Z,65.4
2023-02-27T16:40:14.347Z,66.2
2023-02-27T16:43:14.133Z,66.9
2023-02-27T16:46:14.214Z,67.4
2023-02-27T16:49:19.883Z,67.5
2023-02-27T16:52:14.183Z,67.5
2023-02-27T16:55:14.150Z,67.5
2023-02-27T16:58:14.144Z,67.9
2023-02-27T17:01:14.192Z,68.1
2023-02-27T17:04:25.216Z,68.3
2023-02-27T17:07:14.162Z,68.6
2023-02-27T17:10:14.169Z,68.8
2023-02-27T17:13:14.167Z,68.9
2023-02-27T17:16:14.228Z,68.9
2023-02-27T17:19:14.205Z,69
2023-02-27T17:22:14.205Z,69.2
2023-02-27T17:25:14.339Z,69.4
2023-02-27T17:28:14.178Z,69.5
2023-02-27T17:31:14.328Z,69.8
2023-02-27T17:34:14.189Z,69.8
2023-02-27T17:37:14.196Z,69.9
2023-02-27T17:40:14.221Z,70
2023-02-27T17:43:14.193Z,70.2
2023-02-27T17:46:14.283Z,70.4
2023-02-27T17:49:14.195Z,70.4
2023-02-27T17:52:14.210Z,70.6
2023-02-27T17:55:14.290Z,70.4
2023-02-27T17:58:14.261Z,70.6
2023-02-27T18:01:14.247Z,70.8
2023-02-27T18:04:14.206Z,70.9
2023-02-27T18:07:14.226Z,71.2
2023-02-27T18:10:14.250Z,71
2023-02-27T18:13:14.222Z,71.1
2023-02-27T18:16:14.393Z,71.5
2023-02-27T18:19:14.225Z,71.4
2023-02-27T18:22:14.236Z,71.1
2023-02-27T18:25:16.425Z,71.5
2023-02-27T18:28:14.231Z,71.6
2023-02-27T18:31:14.249Z,72
2023-02-27T18:34:14.270Z,72.8
2023-02-27T18:37:14.243Z,73.4
2023-02-27T18:40:14.238Z,73.4
2023-02-27T18:43:14.242Z,73.6
2023-02-27T18:46:14.276Z,74
2023-02-27T18:49:14.247Z,74.6
2023-02-27T18:52:14.285Z,74.8
2023-02-27T18:55:14.252Z,75
2023-02-27T18:58:14.254Z,74.8
2023-02-27T19:01:14.250Z,75.1
2023-02-27T19:04:14.258Z,75.2
2023-02-27T19:07:14.272Z,75.7
2023-02-27T19:10:14.294Z,75.7
2023-02-27T19:13:14.275Z,75.9
2023-02-27T19:16:14.315Z,76
2023-02-27T19:19:14.277Z,76.5
2023-02-27T19:22:14.290Z,77
2023-02-27T19:25:14.284Z,77.2
2023-02-27T19:28:14.328Z,77.5
2023-02-27T19:31:14.393Z,77.5
2023-02-27T19:34:14.297Z,78.1
2023-02-27T19:37:14.312Z,78.4
2023-02-27T19:40:14.325Z,78.2
2023-02-27T19:43:14.316Z,78
2023-02-27T19:46:14.383Z,78.1
2023-02-27T19:49:14.319Z,78.4
2023-02-27T19:52:14.333Z,78.6
2023-02-27T19:55:14.330Z,78.8
2023-02-27T19:58:14.333Z,78.9
2023-02-27T20:01:14.355Z,78.7
2023-02-27T20:04:14.446Z,78.2
2023-02-27T20:07:14.360Z,77.9
2023-02-27T20:10:14.350Z,77.7
2023-02-27T20:13:14.350Z,77.8
2023-02-27T20:16:14.513Z,77.8
2023-02-27T20:19:14.370Z,78.3
2023-02-27T20:22:14.396Z,78.8
2023-02-27T20:25:14.372Z,79.2
2023-02-27T20:28:14.369Z,79.7
2023-02-27T20:31:14.430Z,80.4
2023-02-27T20:34:14.380Z,80.8
2023-02-27T20:37:14.394Z,81.1
2023-02-27T20:40:14.427Z,81.2
2023-02-27T20:43:14.397Z,81.6
2023-02-27T20:46:14.420Z,82.7
2023-02-27T20:49:14.421Z,83.4
2023-02-27T20:52:14.416Z,83.7
2023-02-27T20:55:14.408Z,83.7
2023-02-27T20:58:14.437Z,84.1
2023-02-27T21:01:14.487Z,85
2023-02-27T21:04:14.530Z,85.6
2023-02-27T21:07:14.464Z,85.9
2023-02-27T21:10:14.432Z,85.8
2023-02-27T21:13:14.447Z,85.8
2023-02-27T21:16:14.492Z,86.1
2023-02-27T21:19:14.450Z,86.3
2023-02-27T21:22:14.466Z,86.1
2023-02-27T21:25:14.462Z,86.1
2023-02-27T21:28:14.464Z,86.2
2023-02-27T21:31:14.538Z,86.5
2023-02-27T21:34:14.598Z,86.7
2023-02-27T21:37:14.490Z,87.1
2023-02-27T21:40:14.478Z,87.6
2023-02-27T21:43:14.500Z,88.2
2023-02-27T21:46:14.571Z,89.1
2023-02-27T21:49:14.490Z,89.7
2023-02-27T21:52:14.536Z,90
2023-02-27T21:55:14.502Z,89.7
2023-02-27T21:58:14.512Z,89.2
2023-02-27T22:01:14.543Z,88.7
2023-02-27T22:04:14.515Z,88.8
2023-02-27T22:07:14.520Z,89.2
2023-02-27T22:10:14.546Z,89.7
2023-02-27T22:13:14.514Z,90
2023-02-27T22:16:14.592Z,89.9
2023-02-27T22:19:14.528Z,90
2023-02-27T22:22:14.553Z,90
2023-02-27T22:25:14.533Z,90.1
2023-02-27T22:28:14.556Z,90.3
2023-02-27T22:31:14.634Z,90.6
2023-02-27T22:34:14.546Z,90.7
2023-02-27T22:37:14.556Z,90.7
2023-02-27T22:40:14.555Z,90.7
2023-02-27T22:43:14.558Z,90.4
2023-02-27T22:46:14.657Z,90.1
2023-02-27T22:49:14.573Z,90
2023-02-27T22:52:14.592Z,90.3
2023-02-27T22:55:14.577Z,90.3
2023-02-27T22:58:14.585Z,89.9
2023-02-27T23:01:14.591Z,89.7
2023-02-27T23:04:14.659Z,89.6
2023-02-27T23:07:14.617Z,89.6
2023-02-27T23:10:14.601Z,90.3
2023-02-27T23:13:14.621Z,90.9
2023-02-27T23:16:14.642Z,91.2
2023-02-27T23:19:14.623Z,91.3
2023-02-27T23:22:14.648Z,91.6
2023-02-27T23:25:14.621Z,91.6
2023-02-27T23:28:14.624Z,91.8
2023-02-27T23:31:14.665Z,92.1
2023-02-27T23:34:14.633Z,92.2
2023-02-27T23:37:14.647Z,92.3
2023-02-27T23:40:14.662Z,92.4
2023-02-27T23:43:14.655Z,92.5
2023-02-27T23:46:14.700Z,92.6
2023-02-27T23:49:14.646Z,92.6
2023-02-27T23:52:14.665Z,92.5
2023-02-27T23:55:14.645Z,92.4
2023-02-27T23:58:14.682Z,92.2
